Time;durP1;ratioP1;P1;durP2;ratioP2;P2;SDS_P1;SDS_P2;PMS_P1;PMS_P2;Temp;Humidity;BMP_temperature;BMP_pressure;BME280_temperature;BME280_humidity;BME280_pressure;Samples;Min_cycle;Max_cycle;Signal;HPM_P1;HPM_P2
2024/02/02 00:00:38;;;;;;;0.82;0.82;;;-0.50;99.90;;;;;;4984241;28;20038;-77
2024/02/02 00:03:05;;;;;;;0.75;0.75;;;-0.50;99.90;;;;;;4988064;28;20035;-76
2024/02/02 00:05:31;;;;;;;4.40;1.02;;;-0.50;99.90;;;;;;4982113;28;20042;-76
2024/02/02 00:07:57;;;;;;;3.70;2.63;;;-0.40;99.90;;;;;;4982085;28;20026;-76
2024/02/02 00:10:24;;;;;;;0.63;0.63;;;-0.40;99.90;;;;;;4988306;28;20034;-78
2024/02/02 00:12:52;;;;;;;0.28;0.28;;;-0.40;99.90;;;;;;4988070;28;20026;-78
2024/02/02 00:15:19;;;;;;;0.30;0.30;;;-0.40;99.90;;;;;;4984591;28;20036;-77
2024/02/02 00:17:46;;;;;;;1.40;1.00;;;-0.40;99.90;;;;;;4980146;28;20030;-78
2024/02/02 00:20:14;;;;;;;2.00;1.08;;;-0.30;99.90;;;;;;4988317;28;20030;-78
2024/02/02 00:22:40;;;;;;;1.13;1.13;;;-0.30;99.90;;;;;;4993063;28;20041;-79
2024/02/02 00:25:07;;;;;;;0.28;0.28;;;-0.30;99.90;;;;;;4991564;28;20038;-78
2024/02/02 00:27:33;;;;;;;0.95;0.60;;;-0.20;99.90;;;;;;4982968;28;20034;-78
2024/02/02 00:29:59;;;;;;;0.30;0.30;;;-0.20;99.90;;;;;;4982286;28;20031;-78
2024/02/02 00:32:25;;;;;;;0.95;0.52;;;-0.30;99.90;;;;;;4988709;28;20034;-78
2024/02/02 00:34:51;;;;;;;0.82;0.70;;;-0.30;99.90;;;;;;4989537;28;20137;-78
2024/02/02 00:37:17;;;;;;;0.55;0.55;;;-0.20;99.90;;;;;;4982364;28;20047;-78
2024/02/02 00:39:45;;;;;;;1.65;0.95;;;-0.20;99.90;;;;;;4982755;28;20026;-78
2024/02/02 00:42:11;;;;;;;1.00;1.00;;;-0.20;99.90;;;;;;4993140;28;20391;-78
2024/02/02 00:44:37;;;;;;;3.92;1.23;;;-0.30;99.90;;;;;;4985834;28;20042;-79
2024/02/02 00:47:03;;;;;;;1.65;1.20;;;-0.30;99.90;;;;;;4983584;28;20042;-77
2024/02/02 00:49:29;;;;;;;4.47;2.28;;;-0.30;99.90;;;;;;4986863;28;20030;-78
2024/02/02 00:51:56;;;;;;;4.03;1.55;;;-0.20;99.90;;;;;;4986424;28;20026;-78
2024/02/02 00:54:26;;;;;;;0.20;0.20;;;-0.20;99.90;;;;;;4988788;28;20041;-78
2024/02/02 00:56:52;;;;;;;0.57;0.57;;;-0.10;99.90;;;;;;4984801;28;20030;-78
2024/02/02 00:59:18;;;;;;;0.40;0.40;;;-0.10;99.90;;;;;;4981613;28;20022;-80
2024/02/02 01:01:44;;;;;;;0.20;0.20;;;-0.10;99.90;;;;;;4981222;28;20027;-79
2024/02/02 01:04:10;;;;;;;0.40;0.38;;;-0.10;99.90;;;;;;4987409;28;20041;-78
2024/02/02 01:06:37;;;;;;;0.10;0.10;;;0.00;99.90;;;;;;4988733;28;20452;-78
2024/02/02 01:09:04;;;;;;;0.10;0.10;;;0.00;99.90;;;;;;4982718;28;20455;-78
2024/02/02 01:11:31;;;;;;;1.33;1.23;;;0.10;99.90;;;;;;4984722;28;20030;-78
2024/02/02 01:13:57;;;;;;;1.58;1.33;;;0.00;99.90;;;;;;5003175;28;20045;-78
2024/02/02 01:16:23;;;;;;;1.00;0.50;;;0.00;99.90;;;;;;4985675;28;20038;-78
2024/02/02 01:18:50;;;;;;;1.20;0.57;;;0.00;99.90;;;;;;4986013;28;20034;-78
2024/02/02 01:21:16;;;;;;;0.93;0.93;;;0.00;99.90;;;;;;4982576;28;20499;-78
2024/02/02 01:23:43;;;;;;;0.10;0.10;;;0.00;99.90;;;;;;4985641;28;20041;-79
2024/02/02 01:26:10;;;;;;;1.13;1.13;;;-0.10;99.90;;;;;;4984430;28;20057;-78
2024/02/02 01:28:37;;;;;;;3.15;1.70;;;0.00;99.90;;;;;;4988562;28;20031;-78
2024/02/02 01:31:03;;;;;;;16.55;2.75;;;0.00;99.90;;;;;;4995982;28;20275;-78
2024/02/02 01:33:30;;;;;;;3.88;2.15;;;0.00;99.90;;;;;;4982157;28;20360;-78
2024/02/02 01:35:57;;;;;;;1.02;1.02;;;0.00;99.90;;;;;;4984483;28;20042;-78
2024/02/02 01:38:23;;;;;;;1.42;1.25;;;0.00;99.90;;;;;;4988103;28;20027;-78
2024/02/02 01:40:50;;;;;;;1.77;1.65;;;0.00;99.90;;;;;;4982816;28;20042;-77
2024/02/02 01:43:16;;;;;;;0.43;0.43;;;0.10;99.90;;;;;;4980477;28;20054;-79
2024/02/02 01:45:42;;;;;;;0.10;0.10;;;0.20;99.90;;;;;;4984923;28;20038;-79
2024/02/02 01:48:08;;;;;;;0.50;0.50;;;0.30;99.90;;;;;;4987715;28;20034;-78
2024/02/02 01:50:34;;;;;;;1.55;1.45;;;0.30;99.90;;;;;;4984107;28;20026;-79
2024/02/02 01:53:01;;;;;;;2.38;1.80;;;0.30;99.90;;;;;;4982695;28;20031;-78
2024/02/02 01:55:27;;;;;;;0.43;0.43;;;0.30;99.90;;;;;;4983814;28;20376;-78
2024/02/02 01:57:54;;;;;;;0.75;0.75;;;0.40;99.90;;;;;;4983663;28;20448;-79
2024/02/02 02:00:20;;;;;;;3.03;1.67;;;0.50;99.90;;;;;;4985979;28;20053;-79
2024/02/02 02:02:47;;;;;;;1.58;1.25;;;0.40;99.90;;;;;;4981945;28;20053;-79
2024/02/02 02:05:13;;;;;;;0.30;0.30;;;0.50;99.90;;;;;;4981904;28;20039;-78
2024/02/02 02:07:44;;;;;;;0.43;0.43;;;0.50;99.90;;;;;;4984122;28;20034;-79
2024/02/02 02:10:11;;;;;;;0.10;0.10;;;0.50;99.90;;;;;;4986640;28;20030;-76
2024/02/02 02:12:37;;;;;;;0.20;0.20;;;0.60;99.90;;;;;;4981468;28;20030;-79
2024/02/02 02:15:04;;;;;;;0.20;0.20;;;0.60;99.90;;;;;;4980136;28;20043;-79
2024/02/02 02:17:30;;;;;;;2.75;1.55;;;0.60;99.90;;;;;;4981995;28;20038;-77
2024/02/02 02:19:58;;;;;;;2.78;1.00;;;0.70;99.90;;;;;;4987034;28;20046;-78
2024/02/02 02:22:25;;;;;;;0.30;0.30;;;0.70;99.90;;;;;;4986640;28;20034;-79
2024/02/02 02:24:51;;;;;;;1.38;1.27;;;0.80;99.90;;;;;;4979500;28;20045;-78
2024/02/02 02:27:17;;;;;;;1.27;0.60;;;0.70;99.90;;;;;;4982826;28;20037;-78
2024/02/02 02:29:44;;;;;;;0.43;0.43;;;0.80;99.90;;;;;;4986150;28;20367;-79
2024/02/02 02:32:10;;;;;;;0.47;0.47;;;0.80;99.90;;;;;;4984375;28;20037;-79
2024/02/02 02:34:36;;;;;;;1.58;1.48;;;0.80;99.90;;;;;;4986657;28;20045;-78
2024/02/02 02:37:03;;;;;;;2.03;1.85;;;0.70;99.90;;;;;;4979930;28;20061;-79
2024/02/02 02:39:29;;;;;;;1.70;0.80;;;0.70;99.90;;;;;;4981875;28;20031;-78
2024/02/02 02:41:55;;;;;;;0.85;0.85;;;0.70;99.90;;;;;;4985576;28;20476;-78
2024/02/02 02:44:21;;;;;;;0.47;0.47;;;0.70;99.90;;;;;;4984625;28;20065;-79
2024/02/02 02:46:48;;;;;;;1.13;1.13;;;0.70;99.90;;;;;;4995314;28;20468;-79
2024/02/02 02:49:14;;;;;;;0.60;0.60;;;0.70;99.90;;;;;;4996575;28;20031;-78
2024/02/02 02:51:41;;;;;;;0.90;0.90;;;0.70;99.90;;;;;;4986582;28;20038;-78
2024/02/02 02:54:07;;;;;;;0.77;0.60;;;0.70;99.90;;;;;;4987769;28;20075;-78
2024/02/02 02:56:33;;;;;;;0.55;0.55;;;0.80;99.90;;;;;;4986523;28;20026;-78
2024/02/02 02:59:00;;;;;;;3.25;1.30;;;0.70;99.90;;;;;;5000393;28;20034;-79
2024/02/02 03:01:26;;;;;;;0.28;0.28;;;0.80;99.90;;;;;;4987960;28;20451;-79
2024/02/02 03:03:52;;;;;;;0.57;0.55;;;0.80;99.90;;;;;;5003230;28;20045;-78
2024/02/02 03:06:18;;;;;;;2.83;1.75;;;0.80;99.90;;;;;;4990143;28;20054;-78
2024/02/02 03:08:45;;;;;;;1.67;0.93;;;0.80;99.90;;;;;;4983076;28;20026;-79
2024/02/02 03:11:11;;;;;;;1.10;0.52;;;0.90;99.90;;;;;;4980348;28;20033;-78
2024/02/02 03:13:37;;;;;;;0.68;0.68;;;0.90;99.90;;;;;;4985847;28;20041;-78
2024/02/02 03:16:04;;;;;;;0.40;0.40;;;1.00;99.90;;;;;;4981536;28;20107;-79
2024/02/02 03:18:30;;;;;;;1.10;1.05;;;1.00;99.90;;;;;;4980441;28;20027;-78
2024/02/02 03:20:56;;;;;;;4.10;1.60;;;1.00;99.90;;;;;;4989802;28;20049;-78
2024/02/02 03:23:23;;;;;;;0.20;0.20;;;1.00;99.90;;;;;;4986643;28;20373;-79
2024/02/02 03:25:49;;;;;;;1.55;1.38;;;1.00;99.90;;;;;;4983435;28;20030;-80
2024/02/02 03:28:15;;;;;;;4.45;2.13;;;1.00;99.90;;;;;;4984585;28;20030;-79
2024/02/02 03:30:41;;;;;;;1.15;1.08;;;1.00;99.90;;;;;;4978172;28;20034;-78
2024/02/02 03:33:07;;;;;;;1.27;1.17;;;1.00;99.90;;;;;;4983580;28;20558;-78
2024/02/02 03:35:34;;;;;;;0.45;0.45;;;1.00;99.90;;;;;;4984803;28;20046;-79
2024/02/02 03:38:00;;;;;;;2.25;2.08;;;1.00;99.90;;;;;;4986267;28;20379;-78
2024/02/02 03:40:26;;;;;;;3.20;0.85;;;1.00;99.90;;;;;;4979904;28;20210;-78
2024/02/02 03:42:52;;;;;;;1.73;1.63;;;1.00;99.90;;;;;;4982280;28;20039;-79
2024/02/02 03:45:19;;;;;;;2.03;1.73;;;1.00;99.90;;;;;;4984871;28;20037;-78
2024/02/02 03:47:45;;;;;;;1.50;1.42;;;1.10;99.90;;;;;;4984624;28;20035;-79
2024/02/02 03:50:11;;;;;;;4.43;1.30;;;1.10;99.90;;;;;;4981014;28;20030;-78
2024/02/02 03:52:37;;;;;;;2.83;1.38;;;1.20;99.90;;;;;;4979501;28;20042;-78
2024/02/02 03:55:04;;;;;;;0.68;0.68;;;1.30;99.90;;;;;;5001127;28;20034;-78
2024/02/02 03:57:30;;;;;;;0.10;0.10;;;1.30;99.90;;;;;;4989207;28;20061;-78
2024/02/02 03:59:57;;;;;;;0.22;0.22;;;1.40;99.90;;;;;;4990256;28;20038;-79
2024/02/02 04:02:23;;;;;;;1.65;1.55;;;1.40;99.90;;;;;;4985058;28;20034;-78
2024/02/02 04:04:49;;;;;;;2.00;1.88;;;1.50;99.90;;;;;;4985158;28;20443;-79
2024/02/02 04:07:15;;;;;;;0.40;0.40;;;1.50;99.90;;;;;;4990291;28;20033;-78
2024/02/02 04:09:42;;;;;;;6.03;2.45;;;1.60;99.90;;;;;;4990585;28;20033;-78
2024/02/02 04:12:08;;;;;;;0.73;0.73;;;1.60;99.90;;;;;;4984976;28;20026;-78
2024/02/02 04:14:36;;;;;;;0.88;0.88;;;1.70;99.90;;;;;;4989674;28;20031;-79
2024/02/02 04:17:02;;;;;;;0.63;0.63;;;1.70;99.90;;;;;;4988730;28;20033;-78
2024/02/02 04:19:28;;;;;;;6.43;3.30;;;1.60;99.90;;;;;;4992808;28;20026;-79
2024/02/02 04:21:55;;;;;;;2.13;2.03;;;1.60;90.60;;;;;;4986303;28;20023;-79
2024/02/02 04:24:21;;;;;;;0.85;0.85;;;1.70;78.40;;;;;;4986429;28;20042;-79
2024/02/02 04:26:47;;;;;;;1.58;1.38;;;1.70;59.50;;;;;;4989156;28;20035;-79
2024/02/02 04:29:14;;;;;;;6.28;4.60;;;1.70;45.00;;;;;;4990416;28;20035;-78
2024/02/02 04:31:40;;;;;;;7.90;4.80;;;1.70;28.60;;;;;;4988284;28;20038;-79
2024/02/02 04:34:06;;;;;;;9.45;4.90;;;1.70;14.50;;;;;;4987512;28;20034;-79
2024/02/02 04:36:33;;;;;;;5.55;4.97;;;1.70;10.40;;;;;;4986008;28;20069;-79
2024/02/02 04:38:59;;;;;;;1.33;1.27;;;1.80;26.30;;;;;;4989499;28;20483;-77
2024/02/02 04:41:25;;;;;;;0.77;0.77;;;1.80;44.10;;;;;;4991831;28;20038;-78
2024/02/02 04:43:51;;;;;;;0.43;0.43;;;1.90;46.70;;;;;;4986072;28;20065;-78
2024/02/02 04:46:17;;;;;;;1.73;0.85;;;2.00;23.80;;;;;;4992181;28;20111;-78
2024/02/02 04:48:43;;;;;;;1.90;1.80;;;2.00;1.00;;;;;;4989380;28;20031;-78
2024/02/02 04:51:10;;;;;;;4.30;2.17;;;2.10;1.00;;;;;;4991559;28;20038;-77
2024/02/02 04:53:36;;;;;;;9.35;3.50;;;2.20;1.00;;;;;;5004519;28;20057;-77
2024/02/02 04:56:03;;;;;;;1.20;0.63;;;2.20;1.00;;;;;;4984791;28;20053;-78
2024/02/02 04:58:30;;;;;;;1.88;1.70;;;2.20;1.00;;;;;;4988804;28;20022;-77
2024/02/02 05:00:56;;;;;;;1.75;1.65;;;2.20;1.00;;;;;;4989826;28;20371;-77
2024/02/02 05:03:22;;;;;;;3.47;1.63;;;2.20;1.00;;;;;;4989672;28;20030;-77
2024/02/02 05:05:48;;;;;;;1.42;1.33;;;2.10;1.00;;;;;;4991684;28;20387;-78
2024/02/02 05:08:15;;;;;;;1.23;1.15;;;2.10;1.00;;;;;;4985367;28;20038;-77
2024/02/02 05:10:41;;;;;;;0.70;0.70;;;2.10;1.00;;;;;;4987871;28;20041;-77
2024/02/02 05:13:07;;;;;;;4.43;1.77;;;2.10;1.00;;;;;;4991854;28;20057;-78
2024/02/02 05:15:35;;;;;;;1.50;1.15;;;2.10;1.00;;;;;;4982210;28;20034;-77
2024/02/02 05:18:01;;;;;;;1.30;1.20;;;2.20;1.00;;;;;;4988014;28;20018;-78
2024/02/02 05:20:28;;;;;;;0.88;0.85;;;2.30;1.00;;;;;;4984959;28;20380;-78
2024/02/02 05:22:54;;;;;;;2.80;1.00;;;2.30;1.00;;;;;;4989102;28;20031;-79
2024/02/02 05:25:20;;;;;;;1.10;1.00;;;2.30;1.00;;;;;;4987123;28;20038;-78
2024/02/02 05:27:46;;;;;;;0.63;0.50;;;2.40;1.00;;;;;;4989406;28;20022;-79
2024/02/02 05:30:13;;;;;;;3.40;0.98;;;2.40;1.00;;;;;;4984952;28;20026;-78
2024/02/02 05:32:39;;;;;;;1.33;0.98;;;2.30;1.00;;;;;;4989415;28;20037;-78
2024/02/02 05:35:06;;;;;;;1.55;1.23;;;2.30;1.00;;;;;;4984929;28;20377;-78
2024/02/02 05:37:33;;;;;;;0.80;0.80;;;2.40;1.00;;;;;;4985826;28;20047;-78
2024/02/02 05:40:00;;;;;;;0.63;0.63;;;2.40;1.00;;;;;;4983420;28;20152;-78
2024/02/02 05:42:26;;;;;;;0.40;0.40;;;2.40;1.00;;;;;;4989717;28;20033;-78
2024/02/02 05:44:52;;;;;;;0.75;0.75;;;2.50;99.90;;;;;;4988100;28;20042;-79
2024/02/02 05:47:18;;;;;;;5.38;1.52;;;2.50;99.90;;;;;;4986361;28;20053;-78
2024/02/02 05:49:44;;;;;;;0.70;0.70;;;2.50;99.90;;;;;;4983423;28;20034;-78
2024/02/02 05:52:11;;;;;;;2.83;1.33;;;2.50;99.90;;;;;;4982684;28;20039;-79
2024/02/02 05:54:37;;;;;;;0.60;0.60;;;2.50;99.90;;;;;;4988213;28;20037;-79
2024/02/02 05:57:03;;;;;;;1.85;1.75;;;2.60;99.90;;;;;;4974903;28;20041;-78
2024/02/02 05:59:30;;;;;;;0.43;0.43;;;2.60;99.90;;;;;;4987155;28;20049;-78
2024/02/02 06:01:56;;;;;;;0.22;0.22;;;2.70;99.90;;;;;;4983294;28;20483;-79
2024/02/02 06:04:22;;;;;;;2.03;1.92;;;2.70;99.90;;;;;;4987830;28;20038;-79
2024/02/02 06:06:48;;;;;;;0.65;0.65;;;2.70;99.90;;;;;;4984913;28;20472;-79
2024/02/02 06:09:16;;;;;;;6.55;1.73;;;2.80;99.90;;;;;;4988825;28;20034;-79
2024/02/02 06:11:42;;;;;;;0.45;0.45;;;2.80;99.90;;;;;;4980886;28;20031;-79
2024/02/02 06:14:08;;;;;;;0.75;0.75;;;2.80;99.90;;;;;;4983289;28;20038;-79
2024/02/02 06:16:35;;;;;;;2.15;1.15;;;2.90;99.90;;;;;;4986450;28;20029;-79
2024/02/02 06:19:01;;;;;;;0.43;0.43;;;2.90;99.90;;;;;;4986330;28;20027;-79
2024/02/02 06:21:27;;;;;;;27.08;2.78;;;3.00;99.90;;;;;;4983458;28;20180;-79
2024/02/02 06:23:53;;;;;;;2.47;1.10;;;3.10;99.90;;;;;;4983237;28;20364;-79
2024/02/02 06:26:20;;;;;;;2.08;1.20;;;3.10;99.90;;;;;;4987820;28;20037;-79
2024/02/02 06:28:46;;;;;;;0.50;0.50;;;3.10;99.90;;;;;;4977033;28;20037;-78
2024/02/02 06:31:16;;;;;;;9.63;2.25;;;3.10;92.40;;;;;;4981398;28;20034;-79
2024/02/02 06:33:42;;;;;;;1.73;1.60;;;3.10;91.40;;;;;;4998914;28;20035;-78
2024/02/02 06:36:08;;;;;;;1.77;1.70;;;3.00;91.20;;;;;;4982554;28;20405;-76
2024/02/02 06:38:36;;;;;;;2.72;2.15;;;3.00;95.70;;;;;;4985128;28;20484;-77
2024/02/02 06:41:02;;;;;;;0.88;0.88;;;3.00;99.80;;;;;;4982306;28;20046;-77
2024/02/02 06:43:28;;;;;;;0.22;0.22;;;3.00;98.20;;;;;;4979929;28;20387;-76
2024/02/02 06:45:55;;;;;;;7.75;2.22;;;3.10;96.40;;;;;;4982239;28;20042;-79
2024/02/02 06:48:21;;;;;;;1.58;1.15;;;3.00;97.40;;;;;;4986704;28;20030;-78
2024/02/02 06:50:47;;;;;;;13.55;6.72;;;3.10;97.10;;;;;;4985490;28;20375;-78
2024/02/02 06:53:15;;;;;;;2.97;2.75;;;3.10;97.00;;;;;;4983249;28;20255;-79
2024/02/02 06:55:41;;;;;;;6.32;5.75;;;3.10;97.20;;;;;;4983903;28;20045;-78
2024/02/02 06:58:30;;;;;;;2.75;1.85;;;3.10;99.90;;;;;;4982874;28;20601;-79
2024/02/02 07:00:57;;;;;;;37.30;24.17;;;3.10;99.90;;;;;;4977231;28;20046;-79
2024/02/02 07:03:23;;;;;;;9.13;8.20;;;3.10;99.90;;;;;;4982443;28;20376;-79
2024/02/02 07:05:50;;;;;;;2.60;2.40;;;3.10;99.90;;;;;;4980987;28;20395;-78
2024/02/02 07:08:16;;;;;;;3.83;3.60;;;3.10;99.90;;;;;;4984057;28;20026;-78
2024/02/02 07:10:42;;;;;;;11.80;3.22;;;3.10;99.90;;;;;;4984995;28;20041;-80
2024/02/02 07:13:09;;;;;;;3.83;2.80;;;3.10;99.90;;;;;;4983780;28;20041;-80
2024/02/02 07:15:44;;;;;;;2.30;2.20;;;3.10;99.90;;;;;;4981532;28;20046;-79
2024/02/02 07:18:32;;;;;;;1.90;1.10;;;3.10;99.90;;;;;;4979622;28;20042;-79
2024/02/02 07:21:01;;;;;;;4.72;1.88;;;3.10;99.90;;;;;;4984763;28;20030;-80
2024/02/02 07:23:37;;;;;;;0.93;0.93;;;3.10;99.90;;;;;;4985709;28;20049;-79
2024/02/02 07:26:07;;;;;;;3.83;2.60;;;3.10;99.90;;;;;;4983023;28;20460;-79
2024/02/02 07:28:38;;;;;;;3.80;0.85;;;3.20;99.90;;;;;;4983007;28;20049;-79
2024/02/02 07:31:07;;;;;;;1.35;1.25;;;3.20;99.90;;;;;;4998811;28;20049;-79
2024/02/02 07:33:47;;;;;;;1.75;1.65;;;3.30;99.90;;;;;;4984293;28;20045;-79
2024/02/02 07:36:33;;;;;;;1.65;1.55;;;3.30;99.90;;;;;;4985032;28;20449;-79
2024/02/02 07:39:00;;;;;;;1.88;1.77;;;3.30;99.90;;;;;;4985643;28;20452;-79
2024/02/02 07:41:27;;;;;;;1.10;0.95;;;3.30;99.90;;;;;;4984281;28;20031;-79
2024/02/02 07:43:55;;;;;;;0.77;0.77;;;3.30;99.90;;;;;;4983806;28;20039;-79
2024/02/02 07:46:22;;;;;;;3.85;2.63;;;3.30;99.90;;;;;;4982102;28;20050;-79
2024/02/02 07:48:50;;;;;;;3.42;2.58;;;3.30;99.90;;;;;;4990342;28;20057;-77
2024/02/02 07:51:22;;;;;;;1.17;1.05;;;3.40;99.90;;;;;;4989501;28;20038;-80
2024/02/02 07:53:49;;;;;;;1.65;1.55;;;3.40;99.90;;;;;;4984990;28;20035;-79
2024/02/02 07:56:17;;;;;;;0.95;0.95;;;3.40;99.90;;;;;;4979825;28;20452;-79
2024/02/02 07:58:44;;;;;;;1.08;1.08;;;3.40;99.90;;;;;;4982752;28;20031;-79
2024/02/02 08:01:10;;;;;;;1.58;1.48;;;3.50;99.90;;;;;;4977682;28;20031;-79
2024/02/02 08:03:37;;;;;;;3.95;3.55;;;3.50;99.90;;;;;;4986317;28;20041;-80
2024/02/02 08:06:05;;;;;;;8.05;5.80;;;3.60;99.90;;;;;;4981173;28;20043;-79
2024/02/02 08:08:33;;;;;;;1.90;1.80;;;3.60;99.90;;;;;;4981677;28;20034;-79
2024/02/02 08:11:02;;;;;;;1.70;1.60;;;3.60;99.90;;;;;;4979179;28;20030;-79
2024/02/02 08:13:30;;;;;;;3.88;2.70;;;3.60;99.90;;;;;;4986343;28;20054;-79
2024/02/02 08:15:57;;;;;;;1.63;1.52;;;3.70;99.90;;;;;;4983786;28;20045;-79
2024/02/02 08:18:24;;;;;;;3.45;3.13;;;3.70;99.90;;;;;;4981790;28;20027;-77
2024/02/02 08:20:50;;;;;;;1.52;1.42;;;3.80;99.90;;;;;;4981004;28;20030;-77
2024/02/02 08:23:16;;;;;;;1.52;1.42;;;3.80;99.90;;;;;;4982462;28;20394;-78
2024/02/02 08:25:42;;;;;;;1.55;1.30;;;3.90;99.90;;;;;;4985435;28;20133;-78
2024/02/02 08:28:09;;;;;;;0.85;0.85;;;4.00;99.90;;;;;;4986035;28;20034;-79
2024/02/02 08:30:35;;;;;;;3.95;2.20;;;4.10;99.90;;;;;;4980662;28;20376;-79
2024/02/02 08:33:01;;;;;;;1.00;1.00;;;4.20;99.90;;;;;;4982531;28;20033;-79
2024/02/02 08:35:28;;;;;;;1.33;1.33;;;4.30;99.90;;;;;;4983264;28;20042;-79
2024/02/02 08:37:57;;;;;;;1.45;1.17;;;4.40;99.90;;;;;;5000204;28;20046;-78
2024/02/02 08:40:38;;;;;;;1.63;1.52;;;4.50;99.90;;;;;;4978665;28;20051;-78
2024/02/02 08:43:19;;;;;;;1.38;1.27;;;4.50;99.90;;;;;;4983620;28;20033;-79
2024/02/02 08:46:10;;;;;;;0.98;0.98;;;4.60;94.30;;;;;;4988887;28;20043;-79
2024/02/02 08:48:39;;;;;;;1.08;1.08;;;4.70;88.90;;;;;;4985127;28;20050;-79
2024/02/02 08:51:20;;;;;;;1.15;1.10;;;4.80;86.90;;;;;;4985571;28;20038;-78
2024/02/02 08:53:47;;;;;;;2.58;1.80;;;4.80;82.90;;;;;;4988401;28;20027;-78
2024/02/02 08:56:14;;;;;;;0.95;0.95;;;4.90;83.00;;;;;;4986705;28;20022;-78
2024/02/02 08:58:41;;;;;;;1.77;1.63;;;5.00;78.10;;;;;;4987366;28;20041;-78
2024/02/02 09:01:42;;;;;;;1.13;1.02;;;5.10;68.90;;;;;;4985080;28;20026;-78
2024/02/02 09:04:39;;;;;;;1.42;1.08;;;5.20;46.10;;;;;;4980626;28;20037;-78
2024/02/02 09:07:05;;;;;;;5.82;3.03;;;5.40;10.70;;;;;;4989418;28;20045;-79
2024/02/02 09:09:31;;;;;;;0.70;0.70;;;5.50;1.00;;;;;;4987269;28;20026;-79
2024/02/02 09:11:58;;;;;;;2.25;2.13;;;5.60;1.00;;;;;;4989576;28;20041;-79
2024/02/02 09:14:24;;;;;;;4.05;1.92;;;5.70;1.00;;;;;;4984432;28;20030;-78
2024/02/02 09:16:52;;;;;;;1.33;0.77;;;5.80;1.00;;;;;;4987593;28;20035;-78
2024/02/02 09:19:33;;;;;;;0.70;0.70;;;5.80;1.00;;;;;;4987123;28;20228;-78
2024/02/02 09:22:02;;;;;;;10.00;3.80;;;5.90;1.00;;;;;;4987422;28;20348;-79
2024/02/02 09:24:40;;;;;;;1.85;1.35;;;6.00;1.00;;;;;;4983251;28;20039;-79
2024/02/02 09:27:09;;;;;;;0.30;0.30;;;6.00;1.00;;;;;;4983045;28;20102;-78
2024/02/02 09:29:44;;;;;;;2.85;1.58;;;6.00;1.00;;;;;;5000100;28;20046;-79
2024/02/02 09:32:11;;;;;;;1.40;0.85;;;5.80;1.00;;;;;;4984034;28;20034;-79
2024/02/02 09:34:40;;;;;;;0.85;0.85;;;5.80;1.00;;;;;;4981880;28;20046;-78
2024/02/02 09:37:19;;;;;;;0.25;0.25;;;5.70;1.00;;;;;;4979788;28;20051;-78
2024/02/02 09:39:52;;;;;;;5.10;2.55;;;5.90;1.00;;;;;;4988438;28;20046;-78
2024/02/02 09:42:42;;;;;;;0.77;0.55;;;6.30;1.00;;;;;;4987016;28;20030;-79
2024/02/02 09:45:17;;;;;;;1.17;1.05;;;6.60;99.90;;;;;;4989848;28;20061;-78
2024/02/02 09:47:58;;;;;;;1.02;0.57;;;6.80;99.90;;;;;;4983422;28;20026;-78
2024/02/02 09:50:46;;;;;;;1.40;1.30;;;7.10;99.90;;;;;;4982475;28;20034;-78
2024/02/02 09:53:46;;;;;;;1.77;1.40;;;7.20;99.90;;;;;;4986374;28;20027;-78
2024/02/02 09:56:38;;;;;;;0.88;0.85;;;7.40;99.90;;;;;;4980448;28;20033;-79
2024/02/02 09:59:25;;;;;;;1.33;0.70;;;7.50;99.90;;;;;;4983942;28;20053;-79
2024/02/02 10:02:02;;;;;;;0.93;0.93;;;7.80;99.90;;;;;;4986352;28;20030;-78
2024/02/02 10:04:44;;;;;;;1.05;0.95;;;7.90;73.30;;;;;;4986353;28;20452;-79
2024/02/02 10:07:29;;;;;;;1.92;1.23;;;7.90;48.20;;;;;;4980793;28;20321;-80
2024/02/02 10:10:06;;;;;;;0.52;0.52;;;8.00;39.80;;;;;;4981776;28;20049;-79
2024/02/02 10:12:59;;;;;;;0.98;0.95;;;8.00;29.00;;;;;;4988822;28;20034;-79
2024/02/02 10:15:54;;;;;;;0.45;0.43;;;8.10;18.50;;;;;;4999448;28;20041;-79
2024/02/02 10:18:32;;;;;;;0.15;0.15;;;8.10;1.00;;;;;;4978830;28;20038;-77
2024/02/02 10:21:20;;;;;;;0.63;0.63;;;8.10;1.00;;;;;;4984320;28;20388;-77
2024/02/02 10:24:15;;;;;;;7.53;3.40;;;8.20;1.00;;;;;;4987410;28;20341;-78
2024/02/02 10:26:44;;;;;;;0.45;0.45;;;8.20;1.00;;;;;;4953188;28;20032;-79
2024/02/02 10:29:40;;;;;;;0.88;0.57;;;8.40;1.00;;;;;;4984233;28;20666;-78
2024/02/02 10:32:26;;;;;;;0.10;0.10;;;8.50;1.00;;;;;;4982207;28;20034;-79
2024/02/02 10:35:23;;;;;;;1.25;0.80;;;8.50;1.00;;;;;;4984574;28;20050;-78
2024/02/02 10:37:50;;;;;;;1.08;1.08;;;8.70;99.90;;;;;;4981029;28;20053;-79
2024/02/02 10:40:36;;;;;;;0.10;0.10;;;8.80;99.90;;;;;;4977514;28;20026;-78
2024/02/02 10:43:23;;;;;;;0.30;0.30;;;8.90;99.90;;;;;;4985336;28;20023;-78
2024/02/02 10:45:56;;;;;;;20.77;1.42;;;8.80;99.90;;;;;;4986860;28;20034;-77
2024/02/02 10:48:34;;;;;;;0.20;0.20;;;8.90;99.90;;;;;;4982889;28;20368;-78
2024/02/02 10:51:11;;;;;;;1.30;1.10;;;9.10;99.90;;;;;;4997789;28;20030;-77
2024/02/02 10:54:07;;;;;;;0.40;0.40;;;9.20;99.90;;;;;;4984791;28;20041;-78
2024/02/02 10:57:00;;;;;;;0.80;0.80;;;9.20;99.90;;;;;;4984505;28;20041;-78
2024/02/02 10:59:51;;;;;;;1.05;1.05;;;9.30;90.90;;;;;;4981782;28;20030;-78
2024/02/02 11:02:58;;;;;;;3.13;1.25;;;9.40;90.80;;;;;;4985830;28;20030;-79
2024/02/02 11:05:34;;;;;;;11.05;0.82;;;9.30;99.90;;;;;;4983339;28;20043;-78
2024/02/02 11:08:03;;;;;;;0.57;0.57;;;9.40;56.70;;;;;;4986692;28;20030;-78
2024/02/02 11:10:48;;;;;;;1.33;1.17;;;9.40;92.30;;;;;;4979352;28;20030;-76
2024/02/02 11:13:44;;;;;;;0.20;0.20;;;9.60;62.50;;;;;;4983205;28;20538;-78
2024/02/02 11:16:32;;;;;;;1.23;1.20;;;9.60;33.40;;;;;;4979393;28;20050;-77
2024/02/02 11:19:29;;;;;;;12.95;0.90;;;9.60;55.40;;;;;;4985783;28;20475;-78
2024/02/02 11:22:06;;;;;;;0.38;0.32;;;9.50;69.30;;;;;;5003152;28;20390;-77
2024/02/02 11:24:50;;;;;;;0.47;0.47;;;9.60;60.60;;;;;;4981986;28;20045;-78
2024/02/02 11:27:23;;;;;;;2.78;1.55;;;9.60;95.70;;;;;;4983789;28;20039;-78
2024/02/02 11:29:54;;;;;;;2.55;1.73;;;9.60;90.40;;;;;;4984137;28;20030;-78
2024/02/02 11:32:45;;;;;;;1.25;1.15;;;9.70;73.40;;;;;;4982094;28;20383;-77
2024/02/02 11:35:28;;;;;;;0.30;0.30;;;9.70;48.20;;;;;;4983414;28;20374;-79
2024/02/02 11:37:57;;;;;;;15.98;0.82;;;9.80;77.70;;;;;;4984266;28;20045;-79
2024/02/02 11:40:28;;;;;;;2.40;1.58;;;9.80;75.10;;;;;;4982932;28;20031;-79
2024/02/02 11:42:58;;;;;;;8.48;0.68;;;9.90;39.40;;;;;;4982277;28;20479;-80
2024/02/02 11:45:27;;;;;;;1.05;0.85;;;9.90;24.90;;;;;;4978512;28;20206;-79
2024/02/02 11:48:04;;;;;;;1.65;0.55;;;10.00;24.10;;;;;;4986584;28;20026;-80
2024/02/02 11:50:37;;;;;;;0.80;0.35;;;10.00;1.00;;;;;;4984690;28;20467;-80
2024/02/02 11:53:21;;;;;;;7.22;1.27;;;10.00;1.00;;;;;;4990489;28;20395;-80
2024/02/02 11:55:54;;;;;;;0.63;0.63;;;10.20;1.00;;;;;;4972498;28;20043;-80
2024/02/02 11:58:24;;;;;;;0.20;0.20;;;10.20;1.00;;;;;;4984228;28;20038;-80
2024/02/02 12:01:21;;;;;;;1.23;0.75;;;10.20;1.00;;;;;;4981506;28;20037;-80
2024/02/02 12:04:14;;;;;;;0.28;0.28;;;10.10;1.00;;;;;;4985381;28;20046;-80
2024/02/02 12:06:53;;;;;;;2.10;0.35;;;10.10;1.00;;;;;;4979218;28;20054;-79
2024/02/02 12:09:37;;;;;;;0.28;0.28;;;10.10;1.00;;;;;;4981307;28;20046;-79
2024/02/02 12:12:08;;;;;;;0.55;0.38;;;10.20;1.00;;;;;;4985154;28;20037;-80
2024/02/02 12:14:38;;;;;;;9.60;1.17;;;10.40;1.00;;;;;;4979792;28;20031;-79
2024/02/02 12:17:07;;;;;;;0.77;0.52;;;10.40;1.00;;;;;;4981474;28;20472;-79
2024/02/02 12:19:33;;;;;;;0.38;0.35;;;10.30;1.00;;;;;;4987071;28;20041;-78
2024/02/02 12:22:00;;;;;;;0.95;0.82;;;10.20;1.00;;;;;;4990492;28;20038;-79
2024/02/02 12:24:28;;;;;;;1.80;1.00;;;10.30;1.00;;;;;;4986552;28;20039;-80
2024/02/02 12:26:54;;;;;;;0.30;0.30;;;10.30;1.00;;;;;;4987578;28;20451;-79
2024/02/02 12:29:21;;;;;;;0.20;0.20;;;10.30;1.00;;;;;;4988637;28;20045;-80
2024/02/02 12:31:48;;;;;;;0.63;0.40;;;10.50;1.00;;;;;;4987599;28;20053;-79
2024/02/02 12:34:15;;;;;;;0.30;0.30;;;10.60;1.00;;;;;;4988099;28;20034;-79
2024/02/02 12:36:42;;;;;;;0.82;0.82;;;10.60;1.00;;;;;;4982959;28;20054;-80
2024/02/02 12:39:08;;;;;;;0.10;0.10;;;10.60;1.00;;;;;;4991509;28;20042;-79
2024/02/02 12:41:36;;;;;;;2.15;0.40;;;10.60;1.00;;;;;;4987413;28;20369;-79
2024/02/02 12:44:04;;;;;;;0.22;0.22;;;10.50;1.00;;;;;;4987078;28;20034;-77
2024/02/02 12:46:45;;;;;;;0.10;0.10;;;10.50;1.00;;;;;;4989037;28;20038;-78
2024/02/02 12:49:12;;;;;;;0.40;0.40;;;10.60;1.00;;;;;;4980961;28;20045;-77
2024/02/02 12:51:38;;;;;;;0.55;0.45;;;10.60;1.00;;;;;;4990237;28;20375;-77
2024/02/02 12:54:05;;;;;;;0.70;0.63;;;10.60;1.00;;;;;;4985864;28;20027;-78
2024/02/02 12:56:31;;;;;;;1.90;0.55;;;10.70;1.00;;;;;;4983137;28;20038;-78
2024/02/02 12:58:58;;;;;;;0.10;0.10;;;10.70;1.00;;;;;;4987089;28;20052;-77
2024/02/02 13:01:26;;;;;;;2.88;0.30;;;10.70;1.00;;;;;;4988761;28;20038;-77
2024/02/02 13:03:53;;;;;;;0.20;0.20;;;10.80;1.00;;;;;;4986938;28;20475;-79
2024/02/02 13:06:19;;;;;;;0.40;0.38;;;11.00;99.90;;;;;;4987870;28;20054;-78
2024/02/02 13:08:46;;;;;;;0.30;0.30;;;11.10;99.90;;;;;;4984099;28;20043;-77
2024/02/02 13:11:25;;;;;;;0.20;0.20;;;11.10;99.90;;;;;;4985955;28;20034;-78
2024/02/02 13:14:04;;;;;;;0.20;0.20;;;11.20;99.90;;;;;;4986327;28;20041;-79